sensor_id;sensor_type;location;lat;lon;timestamp;P1;durP1;ratioP1;P2;durP2;ratioP2
66559;SDS011;53413;49.878;8.142;2022-08-11T00:00:36;6.32;;;4.18;;
66559;SDS011;53413;49.878;8.142;2022-08-11T00:03:05;7.57;;;4.10;;
66559;SDS011;53413;49.878;8.142;2022-08-11T00:05:37;6.63;;;3.90;;
66559;SDS011;53413;49.878;8.142;2022-08-11T00:08:19;7.00;;;4.20;;
66559;SDS011;53413;49.878;8.142;2022-08-11T00:10:50;7.55;;;4.07;;
66559;SDS011;53413;49.878;8.142;2022-08-11T00:13:18;8.50;;;4.00;;
66559;SDS011;53413;49.878;8.142;2022-08-11T00:15:44;6.30;;;4.32;;
66559;SDS011;53413;49.878;8.142;2022-08-11T00:18:10;6.90;;;4.20;;
66559;SDS011;53413;49.878;8.142;2022-08-11T00:20:37;8.68;;;4.18;;
66559;SDS011;53413;49.878;8.142;2022-08-11T00:23:09;7.35;;;4.13;;
66559;SDS011;53413;49.878;8.142;2022-08-11T00:25:42;6.70;;;4.30;;
66559;SDS011;53413;49.878;8.142;2022-08-11T00:28:32;6.95;;;4.13;;
66559;SDS011;53413;49.878;8.142;2022-08-11T00:30:59;7.72;;;4.18;;
66559;SDS011;53413;49.878;8.142;2022-08-11T00:33:31;7.70;;;4.18;;
66559;SDS011;53413;49.878;8.142;2022-08-11T00:36:09;8.13;;;4.20;;
66559;SDS011;53413;49.878;8.142;2022-08-11T00:38:37;5.97;;;4.00;;
66559;SDS011;53413;49.878;8.142;2022-08-11T00:49:41;8.23;;;4.13;;
66559;SDS011;53413;49.878;8.142;2022-08-11T00:52:12;6.30;;;4.10;;
66559;SDS011;53413;49.878;8.142;2022-08-11T01:32:36;7.57;;;4.50;;
66559;SDS011;53413;49.878;8.142;2022-08-11T01:40:50;7.72;;;4.28;;
66559;SDS011;53413;49.878;8.142;2022-08-11T01:58:48;7.20;;;4.35;;
66559;SDS011;53413;49.878;8.142;2022-08-11T02:12:57;8.38;;;4.75;;
66559;SDS011;53413;49.878;8.142;2022-08-11T02:15:35;7.57;;;4.53;;
66559;SDS011;53413;49.878;8.142;2022-08-11T02:18:17;8.45;;;4.30;;
66559;SDS011;53413;49.878;8.142;2022-08-11T02:20:51;7.47;;;4.72;;
66559;SDS011;53413;49.878;8.142;2022-08-11T02:23:49;7.18;;;5.00;;
66559;SDS011;53413;49.878;8.142;2022-08-11T02:31:32;7.68;;;4.50;;
66559;SDS011;53413;49.878;8.142;2022-08-11T02:42:26;7.60;;;4.95;;
66559;SDS011;53413;49.878;8.142;2022-08-11T02:50:18;7.47;;;4.80;;
66559;SDS011;53413;49.878;8.142;2022-08-11T02:55:42;6.63;;;4.70;;
66559;SDS011;53413;49.878;8.142;2022-08-11T03:00:56;7.57;;;4.68;;
66559;SDS011;53413;49.878;8.142;2022-08-11T03:03:47;7.82;;;5.00;;
66559;SDS011;53413;49.878;8.142;2022-08-11T03:06:32;7.85;;;5.00;;
66559;SDS011;53413;49.878;8.142;2022-08-11T03:09:12;8.93;;;5.07;;
66559;SDS011;53413;49.878;8.142;2022-08-11T03:15:08;8.65;;;4.90;;
66559;SDS011;53413;49.878;8.142;2022-08-11T03:18:23;9.18;;;5.28;;
66559;SDS011;53413;49.878;8.142;2022-08-11T03:29:29;7.95;;;4.90;;
66559;SDS011;53413;49.878;8.142;2022-08-11T03:32:21;6.88;;;4.80;;
66559;SDS011;53413;49.878;8.142;2022-08-11T03:34:53;8.38;;;5.00;;
66559;SDS011;53413;49.878;8.142;2022-08-11T03:37:30;7.72;;;5.18;;
66559;SDS011;53413;49.878;8.142;2022-08-11T03:43:10;8.15;;;5.18;;
66559;SDS011;53413;49.878;8.142;2022-08-11T03:51:38;7.40;;;4.80;;
66559;SDS011;53413;49.878;8.142;2022-08-11T04:00:10;10.02;;;7.03;;
66559;SDS011;53413;49.878;8.142;2022-08-11T04:17:44;6.93;;;5.00;;
66559;SDS011;53413;49.878;8.142;2022-08-11T04:40:34;7.25;;;4.80;;
66559;SDS011;53413;49.878;8.142;2022-08-11T05:13:27;10.05;;;5.00;;
66559;SDS011;53413;49.878;8.142;2022-08-11T05:16:16;10.90;;;5.57;;
66559;SDS011;53413;49.878;8.142;2022-08-11T05:19:14;7.70;;;5.60;;
66559;SDS011;53413;49.878;8.142;2022-08-11T05:22:00;8.15;;;5.43;;
66559;SDS011;53413;49.878;8.142;2022-08-11T05:24:50;11.45;;;5.82;;
66559;SDS011;53413;49.878;8.142;2022-08-11T05:27:48;8.27;;;5.00;;
66559;SDS011;53413;49.878;8.142;2022-08-11T05:30:39;9.43;;;5.65;;
66559;SDS011;53413;49.878;8.142;2022-08-11T05:33:36;8.63;;;4.80;;
66559;SDS011;53413;49.878;8.142;2022-08-11T05:39:20;10.90;;;5.00;;
66559;SDS011;53413;49.878;8.142;2022-08-11T05:42:06;10.85;;;5.10;;
66559;SDS011;53413;49.878;8.142;2022-08-11T05:44:52;8.95;;;4.85;;
66559;SDS011;53413;49.878;8.142;2022-08-11T05:47:40;9.13;;;5.13;;
66559;SDS011;53413;49.878;8.142;2022-08-11T05:50:25;8.18;;;5.10;;
66559;SDS011;53413;49.878;8.142;2022-08-11T05:53:11;7.47;;;4.82;;
66559;SDS011;53413;49.878;8.142;2022-08-11T05:55:56;7.57;;;4.55;;
66559;SDS011;53413;49.878;8.142;2022-08-11T05:58:53;9.27;;;5.20;;
66559;SDS011;53413;49.878;8.142;2022-08-11T06:01:22;8.95;;;4.78;;
66559;SDS011;53413;49.878;8.142;2022-08-11T06:03:51;7.45;;;4.90;;
66559;SDS011;53413;49.878;8.142;2022-08-11T06:06:37;8.43;;;4.88;;
66559;SDS011;53413;49.878;8.142;2022-08-11T06:09:06;7.63;;;5.40;;
66559;SDS011;53413;49.878;8.142;2022-08-11T06:11:37;10.85;;;6.28;;
66559;SDS011;53413;49.878;8.142;2022-08-11T06:14:05;9.18;;;5.40;;
66559;SDS011;53413;49.878;8.142;2022-08-11T06:16:31;7.63;;;5.70;;
66559;SDS011;53413;49.878;8.142;2022-08-11T06:18:57;8.37;;;5.07;;
66559;SDS011;53413;49.878;8.142;2022-08-11T06:21:23;6.75;;;5.10;;
66559;SDS011;53413;49.878;8.142;2022-08-11T06:23:50;7.95;;;5.65;;
66559;SDS011;53413;49.878;8.142;2022-08-11T06:26:16;7.90;;;5.00;;
66559;SDS011;53413;49.878;8.142;2022-08-11T06:28:44;7.55;;;5.32;;
66559;SDS011;53413;49.878;8.142;2022-08-11T06:33:50;7.55;;;5.20;;
66559;SDS011;53413;49.878;8.142;2022-08-11T06:36:26;8.52;;;4.93;;
66559;SDS011;53413;49.878;8.142;2022-08-11T06:39:26;6.50;;;4.80;;
66559;SDS011;53413;49.878;8.142;2022-08-11T06:42:10;7.53;;;5.10;;
66559;SDS011;53413;49.878;8.142;2022-08-11T06:44:47;6.45;;;5.03;;
66559;SDS011;53413;49.878;8.142;2022-08-11T06:47:25;9.90;;;5.22;;
66559;SDS011;53413;49.878;8.142;2022-08-11T06:49:51;5.90;;;5.05;;
66559;SDS011;53413;49.878;8.142;2022-08-11T06:52:40;6.67;;;4.60;;
66559;SDS011;53413;49.878;8.142;2022-08-11T06:55:10;6.68;;;5.15;;
66559;SDS011;53413;49.878;8.142;2022-08-11T06:58:16;9.27;;;5.00;;
66559;SDS011;53413;49.878;8.142;2022-08-11T07:01:04;6.43;;;4.40;;
66559;SDS011;53413;49.878;8.142;2022-08-11T07:03:38;8.35;;;5.43;;
66559;SDS011;53413;49.878;8.142;2022-08-11T07:06:20;9.43;;;4.53;;
66559;SDS011;53413;49.878;8.142;2022-08-11T07:15:31;6.85;;;4.57;;
66559;SDS011;53413;49.878;8.142;2022-08-11T07:18:06;6.50;;;4.30;;
66559;SDS011;53413;49.878;8.142;2022-08-11T07:20:53;6.93;;;4.57;;
66559;SDS011;53413;49.878;8.142;2022-08-11T07:24:02;7.13;;;4.30;;
66559;SDS011;53413;49.878;8.142;2022-08-11T07:26:52;8.70;;;4.47;;
66559;SDS011;53413;49.878;8.142;2022-08-11T07:29:44;7.13;;;4.53;;
66559;SDS011;53413;49.878;8.142;2022-08-11T07:32:47;6.45;;;4.70;;
66559;SDS011;53413;49.878;8.142;2022-08-11T07:35:15;5.73;;;4.83;;
66559;SDS011;53413;49.878;8.142;2022-08-11T07:57:48;7.07;;;4.35;;
66559;SDS011;53413;49.878;8.142;2022-08-11T08:00:38;6.35;;;4.20;;
66559;SDS011;53413;49.878;8.142;2022-08-11T08:03:27;8.65;;;4.40;;
66559;SDS011;53413;49.878;8.142;2022-08-11T08:06:13;6.47;;;4.17;;
66559;SDS011;53413;49.878;8.142;2022-08-11T08:08:58;6.97;;;4.15;;
66559;SDS011;53413;49.878;8.142;2022-08-11T08:11:43;5.00;;;4.07;;
66559;SDS011;53413;49.878;8.142;2022-08-11T08:14:32;6.18;;;4.47;;
66559;SDS011;53413;49.878;8.142;2022-08-11T08:17:18;6.65;;;4.72;;
66559;SDS011;53413;49.878;8.142;2022-08-11T08:20:04;6.23;;;3.93;;
66559;SDS011;53413;49.878;8.142;2022-08-11T08:22:31;6.10;;;3.90;;
66559;SDS011;53413;49.878;8.142;2022-08-11T08:24:58;7.82;;;4.20;;
66559;SDS011;53413;49.878;8.142;2022-08-11T08:27:24;7.43;;;4.63;;
66559;SDS011;53413;49.878;8.142;2022-08-11T08:29:52;5.53;;;4.40;;
66559;SDS011;53413;49.878;8.142;2022-08-11T08:32:39;5.87;;;4.00;;
66559;SDS011;53413;49.878;8.142;2022-08-11T08:35:06;6.57;;;4.43;;
66559;SDS011;53413;49.878;8.142;2022-08-11T08:37:35;5.90;;;4.38;;
66559;SDS011;53413;49.878;8.142;2022-08-11T08:40:01;7.47;;;4.60;;
66559;SDS011;53413;49.878;8.142;2022-08-11T08:42:27;7.17;;;4.20;;
66559;SDS011;53413;49.878;8.142;2022-08-11T08:45:15;6.00;;;4.70;;
66559;SDS011;53413;49.878;8.142;2022-08-11T08:47:41;7.93;;;3.80;;
66559;SDS011;53413;49.878;8.142;2022-08-11T08:50:11;8.38;;;4.07;;
66559;SDS011;53413;49.878;8.142;2022-08-11T08:52:39;6.23;;;4.30;;
66559;SDS011;53413;49.878;8.142;2022-08-11T08:55:10;6.65;;;4.40;;
66559;SDS011;53413;49.878;8.142;2022-08-11T08:57:51;6.85;;;4.30;;
66559;SDS011;53413;49.878;8.142;2022-08-11T09:00:19;6.82;;;3.88;;
66559;SDS011;53413;49.878;8.142;2022-08-11T09:02:46;6.15;;;4.13;;
66559;SDS011;53413;49.878;8.142;2022-08-11T09:05:13;4.80;;;3.60;;
66559;SDS011;53413;49.878;8.142;2022-08-11T09:07:42;4.72;;;3.83;;
66559;SDS011;53413;49.878;8.142;2022-08-11T19:31:56;7.72;;;4.80;;
66559;SDS011;53413;49.878;8.142;2022-08-11T19:34:42;6.53;;;3.83;;
66559;SDS011;53413;49.878;8.142;2022-08-11T19:37:28;6.65;;;3.80;;
66559;SDS011;53413;49.878;8.142;2022-08-11T19:40:16;5.93;;;3.65;;
66559;SDS011;53413;49.878;8.142;2022-08-11T19:43:02;6.72;;;3.70;;
66559;SDS011;53413;49.878;8.142;2022-08-11T19:45:47;9.13;;;3.88;;
66559;SDS011;53413;49.878;8.142;2022-08-11T19:48:33;7.65;;;3.88;;
66559;SDS011;53413;49.878;8.142;2022-08-11T19:51:18;8.75;;;3.63;;
66559;SDS011;53413;49.878;8.142;2022-08-11T19:54:03;7.70;;;4.47;;
66559;SDS011;53413;49.878;8.142;2022-08-11T19:56:48;6.28;;;3.90;;
66559;SDS011;53413;49.878;8.142;2022-08-11T19:59:33;6.30;;;3.60;;
66559;SDS011;53413;49.878;8.142;2022-08-11T20:02:18;7.05;;;3.60;;
66559;SDS011;53413;49.878;8.142;2022-08-11T20:05:03;5.85;;;3.80;;
66559;SDS011;53413;49.878;8.142;2022-08-11T20:07:48;7.82;;;3.90;;
66559;SDS011;53413;49.878;8.142;2022-08-11T20:10:34;7.50;;;3.85;;
66559;SDS011;53413;49.878;8.142;2022-08-11T20:13:20;7.72;;;3.75;;
66559;SDS011;53413;49.878;8.142;2022-08-11T20:16:07;7.20;;;3.75;;
66559;SDS011;53413;49.878;8.142;2022-08-11T20:18:55;6.32;;;3.50;;
66559;SDS011;53413;49.878;8.142;2022-08-11T20:21:40;8.40;;;3.70;;
66559;SDS011;53413;49.878;8.142;2022-08-11T20:24:25;6.47;;;3.70;;
66559;SDS011;53413;49.878;8.142;2022-08-11T20:27:11;9.10;;;4.43;;
66559;SDS011;53413;49.878;8.142;2022-08-11T20:29:57;9.60;;;4.63;;
66559;SDS011;53413;49.878;8.142;2022-08-11T20:32:43;11.18;;;4.53;;
66559;SDS011;53413;49.878;8.142;2022-08-11T20:35:28;9.02;;;4.45;;
66559;SDS011;53413;49.878;8.142;2022-08-11T20:38:14;8.60;;;5.72;;
66559;SDS011;53413;49.878;8.142;2022-08-11T20:40:58;7.13;;;4.38;;
66559;SDS011;53413;49.878;8.142;2022-08-11T20:43:44;7.93;;;3.67;;
66559;SDS011;53413;49.878;8.142;2022-08-11T20:46:30;6.95;;;4.00;;
66559;SDS011;53413;49.878;8.142;2022-08-11T20:49:14;9.15;;;3.92;;
66559;SDS011;53413;49.878;8.142;2022-08-11T20:52:00;12.05;;;7.05;;
66559;SDS011;53413;49.878;8.142;2022-08-11T20:54:44;7.00;;;4.30;;
66559;SDS011;53413;49.878;8.142;2022-08-11T20:57:31;7.82;;;3.88;;
66559;SDS011;53413;49.878;8.142;2022-08-11T21:00:16;6.45;;;4.13;;
66559;SDS011;53413;49.878;8.142;2022-08-11T21:03:01;7.75;;;3.80;;
66559;SDS011;53413;49.878;8.142;2022-08-11T21:05:45;6.95;;;3.97;;
66559;SDS011;53413;49.878;8.142;2022-08-11T21:08:32;6.22;;;4.15;;
66559;SDS011;53413;49.878;8.142;2022-08-11T21:11:19;7.63;;;4.25;;
66559;SDS011;53413;49.878;8.142;2022-08-11T21:14:06;7.00;;;4.10;;
66559;SDS011;53413;49.878;8.142;2022-08-11T21:16:56;6.57;;;4.03;;
66559;SDS011;53413;49.878;8.142;2022-08-11T21:19:44;7.00;;;4.40;;
66559;SDS011;53413;49.878;8.142;2022-08-11T21:22:35;6.55;;;3.83;;
66559;SDS011;53413;49.878;8.142;2022-08-11T21:25:25;7.45;;;4.10;;
66559;SDS011;53413;49.878;8.142;2022-08-11T21:28:12;7.43;;;4.60;;
66559;SDS011;53413;49.878;8.142;2022-08-11T21:30:57;9.65;;;5.13;;
66559;SDS011;53413;49.878;8.142;2022-08-11T21:33:43;8.02;;;4.80;;
66559;SDS011;53413;49.878;8.142;2022-08-11T21:36:28;7.20;;;4.43;;
66559;SDS011;53413;49.878;8.142;2022-08-11T21:39:15;7.57;;;4.40;;
66559;SDS011;53413;49.878;8.142;2022-08-11T21:42:02;8.70;;;4.50;;
66559;SDS011;53413;49.878;8.142;2022-08-11T21:44:48;6.50;;;4.22;;
66559;SDS011;53413;49.878;8.142;2022-08-11T21:47:33;9.40;;;4.50;;
66559;SDS011;53413;49.878;8.142;2022-08-11T21:50:17;10.07;;;4.18;;
66559;SDS011;53413;49.878;8.142;2022-08-11T21:53:01;7.32;;;4.00;;
66559;SDS011;53413;49.878;8.142;2022-08-11T21:55:45;7.65;;;4.10;;
66559;SDS011;53413;49.878;8.142;2022-08-11T21:58:30;6.25;;;3.95;;
66559;SDS011;53413;49.878;8.142;2022-08-11T22:01:15;7.28;;;4.00;;
66559;SDS011;53413;49.878;8.142;2022-08-11T22:04:00;7.30;;;4.05;;
66559;SDS011;53413;49.878;8.142;2022-08-11T22:06:46;9.52;;;4.25;;
66559;SDS011;53413;49.878;8.142;2022-08-11T22:09:33;6.75;;;4.10;;
66559;SDS011;53413;49.878;8.142;2022-08-11T22:12:17;8.93;;;4.10;;
66559;SDS011;53413;49.878;8.142;2022-08-11T22:15:01;9.23;;;4.13;;
66559;SDS011;53413;49.878;8.142;2022-08-11T22:17:45;7.38;;;4.20;;
66559;SDS011;53413;49.878;8.142;2022-08-11T22:20:29;7.68;;;3.75;;
66559;SDS011;53413;49.878;8.142;2022-08-11T22:23:15;6.88;;;3.88;;
66559;SDS011;53413;49.878;8.142;2022-08-11T22:26:01;6.15;;;3.95;;
66559;SDS011;53413;49.878;8.142;2022-08-11T22:28:46;8.70;;;3.80;;
66559;SDS011;53413;49.878;8.142;2022-08-11T22:31:30;7.32;;;3.90;;
66559;SDS011;53413;49.878;8.142;2022-08-11T22:34:15;6.32;;;3.67;;
66559;SDS011;53413;49.878;8.142;2022-08-11T22:37:01;7.57;;;3.90;;
66559;SDS011;53413;49.878;8.142;2022-08-11T22:39:46;8.32;;;3.72;;
66559;SDS011;53413;49.878;8.142;2022-08-11T22:42:31;6.22;;;4.05;;
66559;SDS011;53413;49.878;8.142;2022-08-11T22:45:16;7.93;;;3.70;;
66559;SDS011;53413;49.878;8.142;2022-08-11T22:48:00;7.47;;;3.60;;
66559;SDS011;53413;49.878;8.142;2022-08-11T22:50:47;7.43;;;3.67;;
66559;SDS011;53413;49.878;8.142;2022-08-11T22:53:31;7.03;;;3.58;;
66559;SDS011;53413;49.878;8.142;2022-08-11T22:56:16;5.80;;;3.60;;
66559;SDS011;53413;49.878;8.142;2022-08-11T22:59:01;7.63;;;3.70;;
66559;SDS011;53413;49.878;8.142;2022-08-11T23:01:46;7.47;;;3.72;;
66559;SDS011;53413;49.878;8.142;2022-08-11T23:04:32;10.43;;;3.83;;
66559;SDS011;53413;49.878;8.142;2022-08-11T23:07:16;6.63;;;3.70;;
66559;SDS011;53413;49.878;8.142;2022-08-11T23:10:01;8.32;;;3.80;;
66559;SDS011;53413;49.878;8.142;2022-08-11T23:12:46;6.10;;;3.30;;
66559;SDS011;53413;49.878;8.142;2022-08-11T23:15:31;5.80;;;3.35;;
66559;SDS011;53413;49.878;8.142;2022-08-11T23:18:14;7.63;;;3.47;;
66559;SDS011;53413;49.878;8.142;2022-08-11T23:20:59;6.03;;;3.45;;
66559;SDS011;53413;49.878;8.142;2022-08-11T23:23:44;8.77;;;3.60;;
66559;SDS011;53413;49.878;8.142;2022-08-11T23:26:29;6.88;;;3.75;;
66559;SDS011;53413;49.878;8.142;2022-08-11T23:29:14;6.90;;;3.60;;
66559;SDS011;53413;49.878;8.142;2022-08-11T23:31:59;6.50;;;3.40;;
66559;SDS011;53413;49.878;8.142;2022-08-11T23:34:46;6.00;;;3.50;;
66559;SDS011;53413;49.878;8.142;2022-08-11T23:37:35;7.05;;;3.85;;
66559;SDS011;53413;49.878;8.142;2022-08-11T23:40:19;7.10;;;3.70;;
66559;SDS011;53413;49.878;8.142;2022-08-11T23:43:03;5.53;;;3.53;;
66559;SDS011;53413;49.878;8.142;2022-08-11T23:45:47;6.93;;;3.78;;
66559;SDS011;53413;49.878;8.142;2022-08-11T23:48:32;6.72;;;3.80;;
66559;SDS011;53413;49.878;8.142;2022-08-11T23:51:19;7.60;;;3.80;;
66559;SDS011;53413;49.878;8.142;2022-08-11T23:54:03;7.55;;;3.60;;
66559;SDS011;53413;49.878;8.142;2022-08-11T23:56:48;5.68;;;3.42;;
66559;SDS011;53413;49.878;8.142;2022-08-11T23:59:32;6.30;;;3.83;;
